Terminal Aerodrome Forecast
Issued by NWS

Home | Current Version | Previous Version | Text Only | Print | Product List | Glossary On
Versions: 1 2 3 4 5 6 7 8 9 10 11 12 13 14 15 16 17 18
000
FTUS46 KHNX 202320
TAFVIS
TAF
KVIS 202320Z 2100/2124 04005KT P6SM SKC
     FM210900 13002KT 4SM BR FEW250
     FM211500 12002KT 1SM BR OVC250
     FM212100 28003KT 4SM HZ OVC250=

USA.gov is the U.S. government's official web portal to all federal, state and local government web resources and services.